Saturday, January 20, 2018, 8:27 AM EST
Back to Local

KOWD, Norwood Memorial Airport

Location: Norwood, MA, United States Lat: 42.183
Local Time: 8:27 AM EST (13:27 GMT) Lon: -71.167
Time Zone: US/Eastern Elev: 49 ft

Show me the last for .
Show Coded

Time T Td Feel RH Dir Speed Gust Alt SLP Vis Weather Sky Remarks
2018-01-20 07:53 39 23 34 52 200° 7 - 29.72 29.72 10 CLR None
2018-01-20 06:53 38 23 32 54 200° 8 - 29.72 29.72 10 CLR 6-hr Min Temp (7am): 30.9°F
6-hr Max Temp (7am): 37.9°F
2018-01-20 05:53 34 23 27 63 170° 8 - 29.73 29.73 10 CLR None
2018-01-20 04:53 35 22 29 58 200° 7 - 29.77 29.77 10 CLR None
2018-01-20 03:53 32 21 27 63 170° 5 - 29.82 29.82 10 CLR None
2018-01-20 01:53 33 20 27 58 200° 7 - 29.83 29.83 10 CLR None
2018-01-20 00:53 32 19 26 58 180° 7 - 29.85 29.85 10 CLR 6-hr Min Temp (1am): 28.0°F
6-hr Max Temp (1am): 34.0°F
2018-01-19 23:53 30 18 25 60 180° 5 - 29.90 29.90 10 CLR 24-hr Min Temp (12am): 19.9°F
24-hr Max Temp (12am): 37.0°F
2018-01-19 22:53 31 19 27 60 200° 3 - 29.93 29.93 10 CLR None
2018-01-19 21:53 33 19 27 55 200° 7 - 29.94 29.94 10 CLR None
2018-01-19 20:53 33 20 28 58 220° 6 - 29.95 29.95 10 BKN038 None
2018-01-19 19:53 34 20 29 55 230° 6 - 29.96 29.96 10 OVC039 None
2018-01-19 18:53 34 20 30 55 230° 5 - 29.94 29.94 10 OVC040 6-hr Min Temp (7pm): 34.0°F
6-hr Max Temp (7pm): 37.0°F
2018-01-19 17:53 34 20 30 55 240° 5 - 29.94 29.94 10 OVC041 None
2018-01-19 16:53 35 19 29 51 240° 7 - 29.95 29.95 10 OVC041 None
2018-01-19 15:53 36 20 32 51 240° 5 - 29.94 29.94 10 BKN041 None
2018-01-19 14:53 36 21 30 54 290° 8 - 29.93 29.93 10 SCT033 None
2018-01-19 13:53 36 21 29 54 290° 9 - 29.92 29.92 10 OVC035 None
2018-01-19 12:53 36 19 - 49 - Calm - 29.93 29.93 10 FEW031 6-hr Min Temp (1pm): 21.0°F
6-hr Max Temp (1pm): 36.0°F
2018-01-19 11:53 33 19 28 55 280° 6 - 29.95 29.96 10 OVC034 None
2018-01-19 10:53 31 18 26 58 270° 5 - 29.98 29.98 10 OVC039 None
2018-01-19 09:53 29 18 23 63 240° 6 - 30.00 30.00 10 BKN042 None
2018-01-19 08:53 25 17 18 71 260° 6 - 30.00 30.00 9 FEW049 None

Support USWX by starting your Amazon purchase here.